Terminal Aerodrome Forecast
Issued by NWS Shreveport, LA

Home | Current Version | Previous Version | Text Only | Print | Product List | Glossary On
Versions: 1 2 3 4 5 6 7 8 9 10 11 12 13
000
FTUS44 KSHV 141739
TAFLFK
TAF
KLFK 141739Z 1418/1518 00000KT P6SM BKN250
     FM141900 33004KT P6SM BKN250
     FM142200 36005KT P6SM BKN200
     FM150500 01005KT P6SM BKN150=

USA.gov is the U.S. government's official web portal to all federal, state and local government web resources and services.